Flight Track Log - Related Links

Times and Time Zones

All times are in EDT time to prevent confusion due to time zone crossing. See the ASQ6145 flight status page for this flight to view local times or setup timezone preferences in your user account.

Time Position Orientation Groundspeed Altitude Reporting Facility
EDT Latitude Longitude Course Direction KTS MPH feet Rate Location/Type
Wed 12:12:07 PM 41.9167 -87.9333 230° Southwest 200 230 3,100  Level Chicago TRACON
Wed 12:13:07 PM 41.8500 -87.9500 191° South 256 295 5,000 1,800 Climbing Chicago TRACON
Wed 12:13:47 PM 41.8114 -87.9722 203° Southwest 250 288 6,100 2,412 Climbing Chicago Center
Wed 12:14:49 PM 41.7372 -88.0111 201° Southwest 280 322 9,100 2,855 Climbing Chicago Center
Wed 12:15:51 PM 41.6461 -88.0578 201° Southwest 292 336 12,000 1,920 Climbing Chicago Center
Wed 12:16:54 PM 41.5597 -88.1017 201° Southwest 330 380 13,100 1,584 Climbing Chicago Center
Wed 12:17:00 PM 41.6059 -88.4936 230° Southwest  Level Estimated
Wed 12:17:56 PM 41.4703 -88.1456 200° South 351 404 15,300  Level Chicago Center
Wed 12:18:58 PM 41.3856 -88.1897 201° Southwest 340 391 17,600 2,032 Climbing Chicago Center
Wed 12:20:00 PM 41.2814 -88.2358 198° South 336 387 19,500 1,694 Climbing Chicago Center
Wed 12:21:02 PM 41.1928 -88.2769 199° South 340 391 21,100 1,500 Climbing Chicago Center
Wed 12:22:04 PM 41.1028 -88.3172 199° South 343 395 22,600 1,500 Climbing Chicago Center
Wed 12:23:06 PM 41.0119 -88.3586 199° South 346 398 24,200 1,645 Climbing Chicago Center
Wed 12:24:08 PM 40.9061 -88.4053 198° South 337 388 26,000 1,548 Climbing Chicago Center
Wed 12:25:10 PM 40.8183 -88.4442 199° South 334 384 27,400 1,113 Climbing Chicago Center
Wed 12:26:12 PM 40.7319 -88.4831 199° South 332 382 28,300 1,113 Climbing Chicago Center
Wed 12:27:14 PM 40.6550 -88.5422 210° Southwest 324 373 29,700 1,403 Climbing Chicago Center
Wed 12:28:16 PM 40.5894 -88.6153 220° Southwest 313 360 31,200 1,113 Climbing Chicago Center
Wed 12:29:18 PM 40.5222 -88.6892 220° Southwest 315 362 32,000 629 Climbing Chicago Center
Wed 12:30:20 PM 40.4386 -88.7833 221° Southwest 334 384 32,500 726 Climbing Chicago Center
Wed 12:31:22 PM 40.3625 -88.8672 220° Southwest 350 403 33,500 720 Climbing Chicago Center
Wed 12:32:25 PM 40.2867 -88.9494 220° Southwest 354 407 34,000 240 Climbing Chicago Center
Wed 12:33:27 PM 40.2108 -89.0336 220° Southwest 354 407 34,000  Level Chicago Center
Wed 12:34:29 PM 40.1331 -89.1194 220° Southwest 363 418 34,000  Level Chicago Center
Wed 12:35:19 PM 40.0697 -89.1872 219° Southwest 364 419 34,000  Level Kansas City Center
Wed 12:36:19 PM 39.9922 -89.2731 220° Southwest 364 419 34,000  Level Kansas City Center
Wed 12:37:23 PM 39.9003 -89.3747 220° Southwest 361 415 34,000  Level Kansas City Center
Wed 12:38:26 PM 39.8228 -89.4589 220° Southwest 361 415 34,000  Level Kansas City Center
Wed 12:39:27 PM 39.7453 -89.5408 219° Southwest 359 413 34,000  Level Kansas City Center
Wed 12:40:30 PM 39.6744 -89.6169 220° Southwest 358 412 34,000  Level Kansas City Center
Wed 12:41:32 PM 39.5983 -89.7006 220° Southwest 358 412 34,000  Level Kansas City Center
Wed 12:42:33 PM 39.5069 -89.7983 220° Southwest 357 411 34,000  Level Kansas City Center
Wed 12:43:34 PM 39.4306 -89.8808 220° Southwest 357 411 34,000  Level Kansas City Center
Wed 12:44:37 PM 39.3539 -89.9622 219° Southwest 358 412 34,000  Level Kansas City Center
Wed 12:45:40 PM 39.2764 -90.0447 220° Southwest 361 415 34,000  Level Kansas City Center
Wed 12:46:41 PM 39.1975 -90.1275 219° Southwest 365 420 34,000  Level Kansas City Center
Wed 12:47:42 PM 39.1028 -90.2281 219° Southwest 368 423 34,000  Level Kansas City Center
Wed 12:48:46 PM 39.0228 -90.3125 219° Southwest 371 427 34,000  Level Kansas City Center
Wed 12:49:46 PM 38.9431 -90.3969 219° Southwest 374 430 34,000  Level Kansas City Center
Wed 12:50:50 PM 38.8567 -90.4889 220° Southwest 372 428 34,000  Level Kansas City Center
Wed 12:51:51 PM 38.8019 -90.5972 237° Southwest 358 412 34,000  Level Kansas City Center
Wed 12:52:52 PM 38.7436 -90.7122 237° Southwest 360 414 34,000  Level Kansas City Center
Wed 12:53:53 PM 38.6892 -90.8200 237° Southwest 362 417 34,000  Level Kansas City Center
Wed 12:54:57 PM 38.6342 -90.9283 237° Southwest 365 420 34,000  Level Kansas City Center
Wed 12:55:58 PM 38.5783 -91.0378 237° Southwest 368 423 34,000  Level Kansas City Center
Wed 12:57:02 PM 38.5228 -91.1458 237° Southwest 365 420 34,000  Level Kansas City Center
Wed 12:58:02 PM 38.4558 -91.2758 237° Southwest 365 420 34,000  Level Kansas City Center
Wed 12:59:03 PM 38.3994 -91.3825 236° Southwest 367 422 34,000  Level Kansas City Center
Wed 01:00:07 PM 38.3442 -91.4872 236° Southwest 361 415 34,000  Level Kansas City Center
Wed 01:01:08 PM 38.2881 -91.5953 237° Southwest 362 417 34,000  Level Kansas City Center
Wed 01:02:09 PM 38.2328 -91.7050 237° Southwest 364 419 34,000  Level Kansas City Center
Wed 01:03:13 PM 38.1753 -91.8111 235° Southwest 364 419 34,000  Level Kansas City Center
Wed 01:04:14 PM 38.1100 -91.9358 236° Southwest 357 411 34,000  Level Kansas City Center
Wed 01:05:18 PM 38.0567 -92.0378 236° Southwest 348 400 34,000  Level Kansas City Center
Wed 01:06:18 PM 38.0061 -92.1342 236° Southwest 344 396 34,000  Level Kansas City Center
Wed 01:07:22 PM 37.9528 -92.2342 236° Southwest 343 395 34,000  Level Kansas City Center
Wed 01:08:22 PM 37.8978 -92.3331 235° Southwest 345 397 34,000  Level Kansas City Center
Wed 01:09:26 PM 37.8442 -92.4342 236° Southwest 347 399 34,000  Level Kansas City Center
Wed 01:10:27 PM 37.7803 -92.5547 236° Southwest 345 397 34,000  Level Kansas City Center
Wed 01:11:28 PM 37.7272 -92.6547 236° Southwest 343 395 34,000  Level Kansas City Center
Wed 01:12:31 PM 37.6731 -92.7539 235° Southwest 344 396 34,000  Level Kansas City Center
Wed 01:13:32 PM 37.6206 -92.8489 235° Southwest 341 392 34,000  Level Kansas City Center
Wed 01:14:33 PM 37.5667 -92.9481 236° Southwest 341 392 34,000  Level Kansas City Center
Wed 01:16:00 PM 37.5034 -93.1023 243° Southwest  Level FlightAware Approximate
Wed 01:16:38 PM 37.4794 -93.1828 243° Southwest 333 383 34,000  Level Kansas City Center
Wed 01:17:41 PM 37.4383 -93.2875 244° Southwest 334 384 34,000  Level Kansas City Center
Wed 01:18:43 PM 37.3964 -93.3914 243° Southwest 333 383 34,000  Level Kansas City Center
Wed 01:19:46 PM 37.3564 -93.4969 245° Southwest 333 383 34,000  Level Kansas City Center
Wed 01:20:47 PM 37.3161 -93.6039 245° Southwest 336 387 34,000  Level Kansas City Center
Wed 01:21:50 PM 37.2753 -93.7086 244° Southwest 335 386 34,000 -48 Level Kansas City Center
Wed 01:22:51 PM 37.2253 -93.8353 244° Southwest 336 387 33,900 -590 Descending Kansas City Center
Wed 01:23:52 PM 37.1839 -93.9419 244° Southwest 338 389 32,800 -1,440 Descending Kansas City Center
Wed 01:24:56 PM 37.1408 -94.0494 243° Southwest 342 394 30,900 -1,839 Descending Kansas City Center
Wed 01:25:56 PM 37.0994 -94.1542 244° Southwest 343 395 29,000 -1,872 Descending Kansas City Center
Wed 01:27:01 PM 37.0567 -94.2597 243° Southwest 341 392 27,000 -1,968 Descending Kansas City Center
Wed 01:28:01 PM 37.0136 -94.3697 244° Southwest 348 400 24,900 -2,231 Descending Kansas City Center
Wed 01:29:02 PM 36.9617 -94.4975 243° Southwest 345 397 22,500 -2,112 Descending Kansas City Center
Wed 01:30:06 PM 36.9178 -94.6061 243° Southwest 347 399 20,500 -1,776 Descending Kansas City Center
Wed 01:31:07 PM 36.8747 -94.7114 243° Southwest 342 394 18,800 -1,488 Descending Kansas City Center
Wed 01:32:11 PM 36.8350 -94.8083 243° Southwest 327 376 17,400 -1,488 Descending Kansas City Center
Wed 01:33:12 PM 36.7942 -94.9089 243° Southwest 323 372 15,700 -1,636 Descending Kansas City Center
Wed 01:34:12 PM 36.7511 -95.0142 243° Southwest 330 380 14,100 -1,643 Descending Kansas City Center
Wed 01:34:36 PM 36.7256 -95.0742 242° Southwest 349 402 13,400 -1,625 Descending Kansas City Center
Wed 01:35:00 PM 36.7083 -95.1158 243° Southwest 349 402 12,800 -1,538 Descending Kansas City Center
Wed 01:35:15 PM 36.6983 -95.1428 245° Southwest 342 394 12,400 -1,448 Descending Kansas City Center
Wed 01:35:58 PM 36.6689 -95.2125 242° Southwest 346 398 11,400 -1,452 Descending Kansas City Center
Wed 01:36:17 PM 36.6483 -95.2458 232° Southwest 351 404 10,900 -1,345 Descending Kansas City Center
Wed 01:36:56 PM 36.6017 -95.3053 226° Southwest 364 419 10,100 -857 Descending Kansas City Center
Wed 01:37:20 PM 36.5778 -95.3342 224° Southwest 359 413 10,000 -95 Descending Kansas City Center
Wed 01:37:59 PM 36.5317 -95.3903 224° Southwest 357 411 10,000  Level Kansas City Center
Wed 01:38:21 PM 36.5092 -95.4169 224° Southwest 352 405 10,000  Level Kansas City Center
Wed 01:39:12 PM 36.4442 -95.4931 223° Southwest 353 406 10,000 -132 Level Kansas City Center
Wed 01:39:52 PM 36.4008 -95.5483 226° Southwest 325 374 9,800 -986 Descending Kansas City Center
Wed 01:40:25 PM 36.3692 -95.5836 222° Southwest 295 339 8,800 -1,853 Descending Kansas City Center
Wed 01:41:00 PM 36.3381 -95.6217 225° Southwest 251 289 7,700 -1,781 Descending Kansas City Center
Wed 01:41:29 PM 36.3153 -95.6442 219° Southwest 268 308 6,900 -2,000 Descending Kansas City Center
Wed 01:42:12 PM 36.2686 -95.6931 220° Southwest 259 298 5,300 -1,869 Descending Kansas City Center
Wed 01:42:30 PM 36.2603 -95.7019 221° Southwest 264 304 5,000 -2,250 Descending Kansas City Center
Wed 01:43:00 PM 36.2303 -95.7344 221° Southwest 241 277 3,500 -2,066 Descending Kansas City Center
Wed 01:43:31 PM 36.2108 -95.7583 225° Southwest 253 291 2,900 -1,279 Descending Kansas City Center
Wed 01:44:01 PM 36.1975 -95.7931 245° Southwest 187 215 2,200 -1,125 Descending Kansas City Center
Wed 01:44:35 PM 36.1961 -95.8142 265° West 200 230 1,700 -885 Descending Kansas City Center
Wed 01:45:02 PM 36.1956 -95.8425 269° West 123 142 1,300 -885 Descending Kansas City Center
Wed 01:45:36 PM 36.1958 -95.8700 271° West 155 178 800 -882 Descending Kansas City Center
Wed 01:47:00 PM 36.1833 -95.8833 238° Southwest  Level FlightAware Approximate
Wed 01:54:00 PM 36.1984 -95.8881 238° Southwest  Level Estimated
Wed 01:55:00 PM 36.1984 -95.8881 238° Southwest  Level Estimated

Login

Don't have an account? Register now (free) for customized features, flight alerts, and more!